Aviation Digital Data Service (ADDS)

Output produced by METARs form (1106 UTC 18 June 2019)
found at http://www.aviationweather.gov/metar/data/
 
Forecast for: OOMS (SEEB INTL/MUSCAT, OM)
Text: TAF OOMS 181100Z 1812/1918 04012KT 8000 NSC
Forecast period: 1200 to 1700 UTC 18 June 2019
Forecast type: FROM: standard forecast or significant change
Winds: from the NE (40 degrees) at 14 MPH (12 knots; 6.2 m/s)
Visibility: 5 miles (8 km)
Ceiling: unknown
Clouds: missing
Weather: no significant weather forecast for this period
Text: BECMG 1817/1819 VRB02KT
Forecast period: 1700 UTC 18 June 2019 to 0600 UTC 19 June 2019
Forecast type: BECOMING: Conditions expected to become as follows by 1900 UTC 18 June 2019
Winds: variable direction winds at 2 MPH (2 knots; 1.0 m/s)
Visibility: 5 miles (8 km)
Ceiling: unknown
Clouds: missing
Weather: no significant weather forecast for this period
Text: BECMG 1906/1908 05015KT
Forecast period: 0600 to 1800 UTC 19 June 2019
Forecast type: BECOMING: Conditions expected to become as follows by 0800 UTC 19 June 2019
Winds: from the NE (50 degrees) at 17 MPH (15 knots; 7.7 m/s)
Visibility: 5 miles (8 km)
Ceiling: unknown
Clouds: missing
Weather: no significant weather forecast for this period